sensor_id;sensor_type;location;lat;lon;timestamp;temperature;humidity
3416;DHT22;1721;51.238;9.562;2024-03-02T00:02:19;8.20;94.50
3416;DHT22;1721;51.238;9.562;2024-03-02T00:04:45;8.30;94.50
3416;DHT22;1721;51.238;9.562;2024-03-02T00:07:14;8.30;94.40
3416;DHT22;1721;51.238;9.562;2024-03-02T00:09:40;8.30;94.50
3416;DHT22;1721;51.238;9.562;2024-03-02T00:12:05;8.30;94.40
3416;DHT22;1721;51.238;9.562;2024-03-02T00:14:31;8.10;94.40
3416;DHT22;1721;51.238;9.562;2024-03-02T00:16:57;8.20;94.60
3416;DHT22;1721;51.238;9.562;2024-03-02T00:19:23;8.10;94.50
3416;DHT22;1721;51.238;9.562;2024-03-02T00:21:48;8.10;94.30
3416;DHT22;1721;51.238;9.562;2024-03-02T00:24:31;8.20;94.40
3416;DHT22;1721;51.238;9.562;2024-03-02T00:26:56;8.20;94.50
3416;DHT22;1721;51.238;9.562;2024-03-02T00:29:22;8.20;94.30
3416;DHT22;1721;51.238;9.562;2024-03-02T00:31:48;8.30;94.50
3416;DHT22;1721;51.238;9.562;2024-03-02T00:34:14;8.30;94.40
3416;DHT22;1721;51.238;9.562;2024-03-02T00:36:41;8.40;94.50
3416;DHT22;1721;51.238;9.562;2024-03-02T00:39:07;8.50;94.10
3416;DHT22;1721;51.238;9.562;2024-03-02T00:41:33;8.50;94.00
3416;DHT22;1721;51.238;9.562;2024-03-02T00:46:27;8.60;93.60
3416;DHT22;1721;51.238;9.562;2024-03-02T00:48:57;8.60;94.00
3416;DHT22;1721;51.238;9.562;2024-03-02T00:51:24;8.60;94.00
3416;DHT22;1721;51.238;9.562;2024-03-02T00:53:52;8.70;93.80
3416;DHT22;1721;51.238;9.562;2024-03-02T00:56:18;8.80;93.70
3416;DHT22;1721;51.238;9.562;2024-03-02T00:58:44;8.80;93.70
3416;DHT22;1721;51.238;9.562;2024-03-02T01:01:09;8.90;93.60
3416;DHT22;1721;51.238;9.562;2024-03-02T01:03:35;8.90;93.60
3416;DHT22;1721;51.238;9.562;2024-03-02T01:06:02;8.80;93.30
3416;DHT22;1721;51.238;9.562;2024-03-02T01:08:28;8.80;93.50
3416;DHT22;1721;51.238;9.562;2024-03-02T01:10:54;8.80;93.50
3416;DHT22;1721;51.238;9.562;2024-03-02T01:13:21;8.80;93.30
3416;DHT22;1721;51.238;9.562;2024-03-02T01:15:46;8.70;93.60
3416;DHT22;1721;51.238;9.562;2024-03-02T01:18:12;8.70;93.70
3416;DHT22;1721;51.238;9.562;2024-03-02T01:20:37;8.80;93.50
3416;DHT22;1721;51.238;9.562;2024-03-02T01:23:03;8.70;93.60
3416;DHT22;1721;51.238;9.562;2024-03-02T01:25:29;8.80;93.60
3416;DHT22;1721;51.238;9.562;2024-03-02T01:27:54;8.90;93.30
3416;DHT22;1721;51.238;9.562;2024-03-02T01:30:20;8.90;93.30
3416;DHT22;1721;51.238;9.562;2024-03-02T01:32:46;8.90;93.20
3416;DHT22;1721;51.238;9.562;2024-03-02T01:35:12;9.00;92.90
3416;DHT22;1721;51.238;9.562;2024-03-02T01:37:37;8.90;93.20
3416;DHT22;1721;51.238;9.562;2024-03-02T01:40:03;8.90;93.10
3416;DHT22;1721;51.238;9.562;2024-03-02T01:42:38;8.80;93.40
3416;DHT22;1721;51.238;9.562;2024-03-02T01:45:05;8.80;93.70
3416;DHT22;1721;51.238;9.562;2024-03-02T01:47:31;8.60;93.40
3416;DHT22;1721;51.238;9.562;2024-03-02T01:49:57;8.60;93.80
3416;DHT22;1721;51.238;9.562;2024-03-02T01:52:23;8.70;93.90
3416;DHT22;1721;51.238;9.562;2024-03-02T01:54:49;8.70;93.80
3416;DHT22;1721;51.238;9.562;2024-03-02T01:57:15;8.60;93.80
3416;DHT22;1721;51.238;9.562;2024-03-02T01:59:41;8.40;94.00
3416;DHT22;1721;51.238;9.562;2024-03-02T02:02:06;8.40;94.40
3416;DHT22;1721;51.238;9.562;2024-03-02T02:04:32;8.40;94.40
3416;DHT22;1721;51.238;9.562;2024-03-02T02:06:59;8.40;94.50
3416;DHT22;1721;51.238;9.562;2024-03-02T02:09:25;8.50;94.70
3416;DHT22;1721;51.238;9.562;2024-03-02T02:11:51;8.50;94.40
3416;DHT22;1721;51.238;9.562;2024-03-02T02:14:16;8.50;94.20
3416;DHT22;1721;51.238;9.562;2024-03-02T02:16:42;8.50;94.40
3416;DHT22;1721;51.238;9.562;2024-03-02T02:19:08;8.50;94.40
3416;DHT22;1721;51.238;9.562;2024-03-02T02:21:34;8.50;94.50
3416;DHT22;1721;51.238;9.562;2024-03-02T02:24:00;8.60;94.30
3416;DHT22;1721;51.238;9.562;2024-03-02T02:26:28;8.50;94.60
3416;DHT22;1721;51.238;9.562;2024-03-02T02:28:54;8.50;94.60
3416;DHT22;1721;51.238;9.562;2024-03-02T02:31:19;8.50;94.50
3416;DHT22;1721;51.238;9.562;2024-03-02T02:33:45;8.40;94.60
3416;DHT22;1721;51.238;9.562;2024-03-02T02:36:11;8.40;94.70
3416;DHT22;1721;51.238;9.562;2024-03-02T02:38:40;8.40;94.70
3416;DHT22;1721;51.238;9.562;2024-03-02T02:41:07;8.30;94.70
3416;DHT22;1721;51.238;9.562;2024-03-02T02:43:33;8.20;94.70
3416;DHT22;1721;51.238;9.562;2024-03-02T02:45:59;8.30;94.60
3416;DHT22;1721;51.238;9.562;2024-03-02T02:48:24;8.20;94.90
3416;DHT22;1721;51.238;9.562;2024-03-02T02:50:50;8.30;94.70
3416;DHT22;1721;51.238;9.562;2024-03-02T02:53:16;8.30;94.50
3416;DHT22;1721;51.238;9.562;2024-03-02T02:55:42;8.20;94.40
3416;DHT22;1721;51.238;9.562;2024-03-02T02:58:09;8.20;94.60
3416;DHT22;1721;51.238;9.562;2024-03-02T03:00:34;8.20;94.80
3416;DHT22;1721;51.238;9.562;2024-03-02T03:03:01;8.20;94.50
3416;DHT22;1721;51.238;9.562;2024-03-02T03:05:26;8.10;94.70
3416;DHT22;1721;51.238;9.562;2024-03-02T03:07:52;8.10;94.60
3416;DHT22;1721;51.238;9.562;2024-03-02T03:10:17;8.10;94.50
3416;DHT22;1721;51.238;9.562;2024-03-02T03:12:43;8.00;95.00
3416;DHT22;1721;51.238;9.562;2024-03-02T03:15:10;8.10;95.20
3416;DHT22;1721;51.238;9.562;2024-03-02T03:17:36;8.10;95.10
3416;DHT22;1721;51.238;9.562;2024-03-02T03:20:03;8.10;95.10
3416;DHT22;1721;51.238;9.562;2024-03-02T03:22:30;8.00;95.20
3416;DHT22;1721;51.238;9.562;2024-03-02T03:24:57;8.10;95.00
3416;DHT22;1721;51.238;9.562;2024-03-02T03:27:22;8.00;94.80
3416;DHT22;1721;51.238;9.562;2024-03-02T03:29:48;7.90;95.50
3416;DHT22;1721;51.238;9.562;2024-03-02T03:32:13;7.90;95.50
3416;DHT22;1721;51.238;9.562;2024-03-02T03:34:39;7.90;95.10
3416;DHT22;1721;51.238;9.562;2024-03-02T03:37:05;7.90;95.50
3416;DHT22;1721;51.238;9.562;2024-03-02T03:39:31;7.80;95.10
3416;DHT22;1721;51.238;9.562;2024-03-02T03:41:56;7.80;95.50
3416;DHT22;1721;51.238;9.562;2024-03-02T03:44:28;7.80;95.40
3416;DHT22;1721;51.238;9.562;2024-03-02T03:46:54;7.70;95.50
3416;DHT22;1721;51.238;9.562;2024-03-02T03:49:19;7.70;95.70
3416;DHT22;1721;51.238;9.562;2024-03-02T03:51:51;7.70;95.50
3416;DHT22;1721;51.238;9.562;2024-03-02T03:54:19;7.70;95.70
3416;DHT22;1721;51.238;9.562;2024-03-02T03:56:45;7.70;95.70
3416;DHT22;1721;51.238;9.562;2024-03-02T03:59:10;7.80;95.80
3416;DHT22;1721;51.238;9.562;2024-03-02T04:01:37;7.70;95.50
3416;DHT22;1721;51.238;9.562;2024-03-02T04:04:02;7.60;95.80
3416;DHT22;1721;51.238;9.562;2024-03-02T04:06:29;7.60;95.70
3416;DHT22;1721;51.238;9.562;2024-03-02T04:08:55;7.70;95.70
3416;DHT22;1721;51.238;9.562;2024-03-02T04:11:20;7.70;95.70
3416;DHT22;1721;51.238;9.562;2024-03-02T04:13:46;7.70;95.60
3416;DHT22;1721;51.238;9.562;2024-03-02T04:16:11;7.70;95.90
3416;DHT22;1721;51.238;9.562;2024-03-02T04:18:37;7.60;95.30
3416;DHT22;1721;51.238;9.562;2024-03-02T04:21:03;7.40;95.50
3416;DHT22;1721;51.238;9.562;2024-03-02T04:23:29;7.40;96.00
3416;DHT22;1721;51.238;9.562;2024-03-02T04:25:54;7.40;96.00
3416;DHT22;1721;51.238;9.562;2024-03-02T04:28:20;7.50;95.50
3416;DHT22;1721;51.238;9.562;2024-03-02T04:30:45;7.40;95.70
3416;DHT22;1721;51.238;9.562;2024-03-02T04:33:11;7.40;95.80
3416;DHT22;1721;51.238;9.562;2024-03-02T04:35:37;7.40;95.70
3416;DHT22;1721;51.238;9.562;2024-03-02T04:38:02;7.50;95.80
3416;DHT22;1721;51.238;9.562;2024-03-02T04:40:28;7.40;95.50
3416;DHT22;1721;51.238;9.562;2024-03-02T04:42:53;7.40;95.50
3416;DHT22;1721;51.238;9.562;2024-03-02T04:45:19;7.30;95.70
3416;DHT22;1721;51.238;9.562;2024-03-02T04:47:45;7.30;95.80
3416;DHT22;1721;51.238;9.562;2024-03-02T04:50:10;7.20;95.70
3416;DHT22;1721;51.238;9.562;2024-03-02T04:52:36;7.20;95.90
3416;DHT22;1721;51.238;9.562;2024-03-02T04:55:02;7.30;95.90
3416;DHT22;1721;51.238;9.562;2024-03-02T04:57:46;7.40;96.10
3416;DHT22;1721;51.238;9.562;2024-03-02T05:00:13;7.50;95.80
3416;DHT22;1721;51.238;9.562;2024-03-02T05:02:39;7.60;95.60
3416;DHT22;1721;51.238;9.562;2024-03-02T05:05:04;7.60;95.60
3416;DHT22;1721;51.238;9.562;2024-03-02T05:07:30;7.60;95.40
3416;DHT22;1721;51.238;9.562;2024-03-02T05:09:55;7.50;95.70
3416;DHT22;1721;51.238;9.562;2024-03-02T05:12:21;7.60;95.50
3416;DHT22;1721;51.238;9.562;2024-03-02T05:15:05;7.60;95.60
3416;DHT22;1721;51.238;9.562;2024-03-02T05:17:32;7.60;95.60
3416;DHT22;1721;51.238;9.562;2024-03-02T05:19:58;7.70;95.40
3416;DHT22;1721;51.238;9.562;2024-03-02T05:22:24;7.70;95.30
3416;DHT22;1721;51.238;9.562;2024-03-02T05:24:49;7.80;95.20
3416;DHT22;1721;51.238;9.562;2024-03-02T05:27:15;7.80;94.90
3416;DHT22;1721;51.238;9.562;2024-03-02T05:29:41;7.90;94.60
3416;DHT22;1721;51.238;9.562;2024-03-02T05:32:06;7.80;94.60
3416;DHT22;1721;51.238;9.562;2024-03-02T05:34:32;7.80;94.60
3416;DHT22;1721;51.238;9.562;2024-03-02T05:37:00;7.80;94.90
3416;DHT22;1721;51.238;9.562;2024-03-02T05:39:25;7.90;95.00
3416;DHT22;1721;51.238;9.562;2024-03-02T05:41:51;8.00;94.70
3416;DHT22;1721;51.238;9.562;2024-03-02T05:44:17;7.90;94.70
3416;DHT22;1721;51.238;9.562;2024-03-02T05:46:43;7.90;94.60
3416;DHT22;1721;51.238;9.562;2024-03-02T05:49:09;7.90;94.40
3416;DHT22;1721;51.238;9.562;2024-03-02T05:51:35;8.00;94.80
3416;DHT22;1721;51.238;9.562;2024-03-02T05:54:01;8.10;94.70
3416;DHT22;1721;51.238;9.562;2024-03-02T05:56:26;8.20;94.50
3416;DHT22;1721;51.238;9.562;2024-03-02T05:58:52;8.20;94.10
3416;DHT22;1721;51.238;9.562;2024-03-02T06:01:33;8.20;94.00
3416;DHT22;1721;51.238;9.562;2024-03-02T06:03:59;8.00;94.30
3416;DHT22;1721;51.238;9.562;2024-03-02T06:06:25;8.00;94.10
3416;DHT22;1721;51.238;9.562;2024-03-02T06:08:51;8.00;94.20
3416;DHT22;1721;51.238;9.562;2024-03-02T06:11:17;8.00;94.20
3416;DHT22;1721;51.238;9.562;2024-03-02T06:13:42;8.00;94.00
3416;DHT22;1721;51.238;9.562;2024-03-02T06:16:08;7.90;94.50
3416;DHT22;1721;51.238;9.562;2024-03-02T06:18:34;8.00;94.50
3416;DHT22;1721;51.238;9.562;2024-03-02T06:20:59;8.00;94.20
3416;DHT22;1721;51.238;9.562;2024-03-02T06:23:26;8.10;94.00
3416;DHT22;1721;51.238;9.562;2024-03-02T06:25:52;8.10;94.00
3416;DHT22;1721;51.238;9.562;2024-03-02T06:28:18;8.10;93.90
3416;DHT22;1721;51.238;9.562;2024-03-02T06:30:44;8.20;93.90
3416;DHT22;1721;51.238;9.562;2024-03-02T06:33:10;8.20;94.00
3416;DHT22;1721;51.238;9.562;2024-03-02T06:35:36;8.20;93.80
3416;DHT22;1721;51.238;9.562;2024-03-02T06:38:01;8.20;93.70
3416;DHT22;1721;51.238;9.562;2024-03-02T06:40:27;8.20;93.80
3416;DHT22;1721;51.238;9.562;2024-03-02T06:42:53;8.20;93.80
3416;DHT22;1721;51.238;9.562;2024-03-02T06:45:18;8.20;94.30
3416;DHT22;1721;51.238;9.562;2024-03-02T06:47:44;8.20;94.20
3416;DHT22;1721;51.238;9.562;2024-03-02T06:50:09;8.30;94.20
3416;DHT22;1721;51.238;9.562;2024-03-02T06:52:35;8.30;94.10
3416;DHT22;1721;51.238;9.562;2024-03-02T06:55:01;8.30;94.20
3416;DHT22;1721;51.238;9.562;2024-03-02T06:57:27;8.50;94.20
3416;DHT22;1721;51.238;9.562;2024-03-02T06:59:53;8.60;94.00
3416;DHT22;1721;51.238;9.562;2024-03-02T07:02:22;8.50;93.60
3416;DHT22;1721;51.238;9.562;2024-03-02T07:04:48;8.60;94.10
3416;DHT22;1721;51.238;9.562;2024-03-02T07:07:14;8.80;94.10
3416;DHT22;1721;51.238;9.562;2024-03-02T07:09:39;8.70;93.30
3416;DHT22;1721;51.238;9.562;2024-03-02T07:12:05;8.60;93.70
3416;DHT22;1721;51.238;9.562;2024-03-02T07:14:31;8.80;93.90
3416;DHT22;1721;51.238;9.562;2024-03-02T07:17:15;8.80;93.50
3416;DHT22;1721;51.238;9.562;2024-03-02T07:19:40;8.90;93.80
3416;DHT22;1721;51.238;9.562;2024-03-02T07:22:07;8.90;93.50
3416;DHT22;1721;51.238;9.562;2024-03-02T07:24:42;9.10;93.60
3416;DHT22;1721;51.238;9.562;2024-03-02T07:27:09;9.20;93.50
3416;DHT22;1721;51.238;9.562;2024-03-02T07:29:34;9.40;93.40
3416;DHT22;1721;51.238;9.562;2024-03-02T07:32:00;9.50;93.30
3416;DHT22;1721;51.238;9.562;2024-03-02T07:34:25;9.60;93.10
3416;DHT22;1721;51.238;9.562;2024-03-02T07:36:51;9.80;93.10
3416;DHT22;1721;51.238;9.562;2024-03-02T07:39:16;9.90;92.60
3416;DHT22;1721;51.238;9.562;2024-03-02T07:41:42;10.00;92.10
3416;DHT22;1721;51.238;9.562;2024-03-02T07:44:08;10.20;92.00
3416;DHT22;1721;51.238;9.562;2024-03-02T07:46:33;10.10;91.20
3416;DHT22;1721;51.238;9.562;2024-03-02T07:48:59;10.30;91.70
3416;DHT22;1721;51.238;9.562;2024-03-02T07:51:24;10.20;90.90
3416;DHT22;1721;51.238;9.562;2024-03-02T07:53:50;10.30;91.20
3416;DHT22;1721;51.238;9.562;2024-03-02T07:56:16;10.30;90.70
3416;DHT22;1721;51.238;9.562;2024-03-02T07:58:48;10.40;91.10
3416;DHT22;1721;51.238;9.562;2024-03-02T08:01:14;10.40;90.40
3416;DHT22;1721;51.238;9.562;2024-03-02T08:03:40;10.40;90.70
3416;DHT22;1721;51.238;9.562;2024-03-02T08:06:06;10.40;90.90
3416;DHT22;1721;51.238;9.562;2024-03-02T08:08:31;10.50;90.80
3416;DHT22;1721;51.238;9.562;2024-03-02T08:10:57;10.60;90.20
3416;DHT22;1721;51.238;9.562;2024-03-02T08:13:22;10.60;90.70
3416;DHT22;1721;51.238;9.562;2024-03-02T08:15:48;10.50;89.80
3416;DHT22;1721;51.238;9.562;2024-03-02T08:18:14;10.60;90.80
3416;DHT22;1721;51.238;9.562;2024-03-02T08:20:40;10.80;90.70
3416;DHT22;1721;51.238;9.562;2024-03-02T08:23:06;10.90;90.60
3416;DHT22;1721;51.238;9.562;2024-03-02T08:25:32;11.10;90.10
3416;DHT22;1721;51.238;9.562;2024-03-02T08:27:58;11.00;90.00
3416;DHT22;1721;51.238;9.562;2024-03-02T08:30:23;11.10;89.30
3416;DHT22;1721;51.238;9.562;2024-03-02T08:32:49;11.10;89.60
3416;DHT22;1721;51.238;9.562;2024-03-02T08:35:14;11.20;89.40
3416;DHT22;1721;51.238;9.562;2024-03-02T08:37:41;11.30;88.70
3416;DHT22;1721;51.238;9.562;2024-03-02T08:40:08;11.20;88.10
3416;DHT22;1721;51.238;9.562;2024-03-02T08:42:34;11.20;87.30
3416;DHT22;1721;51.238;9.562;2024-03-02T08:45:00;11.30;88.50
3416;DHT22;1721;51.238;9.562;2024-03-02T08:47:26;11.50;87.70
3416;DHT22;1721;51.238;9.562;2024-03-02T08:49:52;11.70;88.20
3416;DHT22;1721;51.238;9.562;2024-03-02T08:52:18;11.80;86.60
3416;DHT22;1721;51.238;9.562;2024-03-02T08:54:44;11.60;86.60
3416;DHT22;1721;51.238;9.562;2024-03-02T08:57:09;11.70;86.90
3416;DHT22;1721;51.238;9.562;2024-03-02T08:59:35;11.70;86.40
3416;DHT22;1721;51.238;9.562;2024-03-02T09:02:01;11.70;87.00
3416;DHT22;1721;51.238;9.562;2024-03-02T09:04:27;11.40;85.10
3416;DHT22;1721;51.238;9.562;2024-03-02T09:06:53;11.40;87.00
3416;DHT22;1721;51.238;9.562;2024-03-02T09:09:18;11.40;87.30
3416;DHT22;1721;51.238;9.562;2024-03-02T09:11:46;11.50;87.20
3416;DHT22;1721;51.238;9.562;2024-03-02T09:14:12;11.50;86.20
3416;DHT22;1721;51.238;9.562;2024-03-02T09:16:37;11.70;86.60
3416;DHT22;1721;51.238;9.562;2024-03-02T09:19:03;11.60;86.40
3416;DHT22;1721;51.238;9.562;2024-03-02T09:21:29;11.70;86.00
3416;DHT22;1721;51.238;9.562;2024-03-02T09:23:55;11.90;86.10
3416;DHT22;1721;51.238;9.562;2024-03-02T09:26:22;11.90;85.80
3416;DHT22;1721;51.238;9.562;2024-03-02T09:28:47;11.80;86.30
3416;DHT22;1721;51.238;9.562;2024-03-02T09:31:13;12.00;86.20
3416;DHT22;1721;51.238;9.562;2024-03-02T09:33:39;12.00;85.20
3416;DHT22;1721;51.238;9.562;2024-03-02T09:36:05;11.90;84.60
3416;DHT22;1721;51.238;9.562;2024-03-02T09:38:32;12.00;84.40
3416;DHT22;1721;51.238;9.562;2024-03-02T09:41:00;12.00;83.60
3416;DHT22;1721;51.238;9.562;2024-03-02T09:43:26;12.00;84.70
3416;DHT22;1721;51.238;9.562;2024-03-02T09:45:52;12.00;85.50
3416;DHT22;1721;51.238;9.562;2024-03-02T09:48:18;12.10;85.00
3416;DHT22;1721;51.238;9.562;2024-03-02T09:50:46;12.30;85.40
3416;DHT22;1721;51.238;9.562;2024-03-02T09:53:12;12.30;83.10
3416;DHT22;1721;51.238;9.562;2024-03-02T09:55:37;12.40;84.10
3416;DHT22;1721;51.238;9.562;2024-03-02T09:58:05;12.50;84.30
3416;DHT22;1721;51.238;9.562;2024-03-02T10:00:31;12.60;84.30
3416;DHT22;1721;51.238;9.562;2024-03-02T10:02:56;12.70;83.30
3416;DHT22;1721;51.238;9.562;2024-03-02T10:05:30;12.60;83.60
3416;DHT22;1721;51.238;9.562;2024-03-02T10:08:02;12.50;82.80
3416;DHT22;1721;51.238;9.562;2024-03-02T10:10:39;12.50;82.70
3416;DHT22;1721;51.238;9.562;2024-03-02T10:13:12;12.60;83.50
3416;DHT22;1721;51.238;9.562;2024-03-02T10:15:39;12.50;82.50
3416;DHT22;1721;51.238;9.562;2024-03-02T10:18:12;12.30;83.00
3416;DHT22;1721;51.238;9.562;2024-03-02T10:20:38;12.30;83.80
3416;DHT22;1721;51.238;9.562;2024-03-02T10:23:14;12.30;83.30
3416;DHT22;1721;51.238;9.562;2024-03-02T10:25:40;12.20;83.30
3416;DHT22;1721;51.238;9.562;2024-03-02T10:28:06;12.00;82.80
3416;DHT22;1721;51.238;9.562;2024-03-02T10:30:33;12.20;83.20
3416;DHT22;1721;51.238;9.562;2024-03-02T10:33:02;12.00;82.90
3416;DHT22;1721;51.238;9.562;2024-03-02T10:35:28;12.10;83.90
3416;DHT22;1721;51.238;9.562;2024-03-02T10:37:58;12.30;83.40
3416;DHT22;1721;51.238;9.562;2024-03-02T10:40:27;12.60;84.00
3416;DHT22;1721;51.238;9.562;2024-03-02T10:42:52;12.90;83.50
3416;DHT22;1721;51.238;9.562;2024-03-02T10:45:20;13.00;83.20
3416;DHT22;1721;51.238;9.562;2024-03-02T10:47:47;13.20;81.80
3416;DHT22;1721;51.238;9.562;2024-03-02T10:50:13;13.20;81.40
3416;DHT22;1721;51.238;9.562;2024-03-02T10:52:39;13.10;82.30
3416;DHT22;1721;51.238;9.562;2024-03-02T10:55:06;13.20;81.90
3416;DHT22;1721;51.238;9.562;2024-03-02T10:57:42;13.50;80.00
3416;DHT22;1721;51.238;9.562;2024-03-02T11:00:12;13.40;78.70
3416;DHT22;1721;51.238;9.562;2024-03-02T11:02:44;13.40;79.30
3416;DHT22;1721;51.238;9.562;2024-03-02T11:05:12;13.30;79.10
3416;DHT22;1721;51.238;9.562;2024-03-02T11:07:40;13.30;80.60
3416;DHT22;1721;51.238;9.562;2024-03-02T11:10:08;13.60;81.10
3416;DHT22;1721;51.238;9.562;2024-03-02T11:12:56;13.70;79.60
3416;DHT22;1721;51.238;9.562;2024-03-02T11:15:25;13.80;79.50
3416;DHT22;1721;51.238;9.562;2024-03-02T11:17:52;13.80;79.00
3416;DHT22;1721;51.238;9.562;2024-03-02T11:20:18;13.50;77.10
3416;DHT22;1721;51.238;9.562;2024-03-02T11:22:45;13.50;77.90
3416;DHT22;1721;51.238;9.562;2024-03-02T11:25:27;13.60;77.60
3416;DHT22;1721;51.238;9.562;2024-03-02T11:33:00;13.40;77.10
3416;DHT22;1721;51.238;9.562;2024-03-02T11:35:27;13.30;77.80
3416;DHT22;1721;51.238;9.562;2024-03-02T11:37:55;13.30;77.80
3416;DHT22;1721;51.238;9.562;2024-03-02T11:40:27;13.20;78.50
3416;DHT22;1721;51.238;9.562;2024-03-02T11:42:53;13.30;78.80
3416;DHT22;1721;51.238;9.562;2024-03-02T11:45:28;13.30;79.50
3416;DHT22;1721;51.238;9.562;2024-03-02T11:47:56;13.40;77.70
3416;DHT22;1721;51.238;9.562;2024-03-02T11:53:04;13.30;79.40
3416;DHT22;1721;51.238;9.562;2024-03-02T11:55:38;13.30;79.90
3416;DHT22;1721;51.238;9.562;2024-03-02T11:58:09;13.10;79.80
3416;DHT22;1721;51.238;9.562;2024-03-02T12:00:35;13.20;80.10
3416;DHT22;1721;51.238;9.562;2024-03-02T12:03:08;13.40;78.70
3416;DHT22;1721;51.238;9.562;2024-03-02T12:05:35;13.40;77.70
3416;DHT22;1721;51.238;9.562;2024-03-02T12:08:03;13.40;77.90
3416;DHT22;1721;51.238;9.562;2024-03-02T12:10:29;13.50;78.80
3416;DHT22;1721;51.238;9.562;2024-03-02T12:13:06;13.50;77.90
3416;DHT22;1721;51.238;9.562;2024-03-02T12:15:37;13.50;76.90
3416;DHT22;1721;51.238;9.562;2024-03-02T12:18:04;13.50;77.20
3416;DHT22;1721;51.238;9.562;2024-03-02T12:20:31;13.60;76.80
3416;DHT22;1721;51.238;9.562;2024-03-02T12:23:01;13.70;76.90
3416;DHT22;1721;51.238;9.562;2024-03-02T12:25:28;13.80;76.70
3416;DHT22;1721;51.238;9.562;2024-03-02T12:27:55;14.00;77.40
3416;DHT22;1721;51.238;9.562;2024-03-02T12:30:22;14.00;75.90
3416;DHT22;1721;51.238;9.562;2024-03-02T12:32:48;14.20;75.90
3416;DHT22;1721;51.238;9.562;2024-03-02T12:35:14;14.20;75.70
3416;DHT22;1721;51.238;9.562;2024-03-02T12:37:47;14.20;74.50
3416;DHT22;1721;51.238;9.562;2024-03-02T12:40:14;14.10;74.80
3416;DHT22;1721;51.238;9.562;2024-03-02T12:42:40;14.00;75.90
3416;DHT22;1721;51.238;9.562;2024-03-02T12:45:07;14.00;75.80
3416;DHT22;1721;51.238;9.562;2024-03-02T12:47:36;14.10;74.60
3416;DHT22;1721;51.238;9.562;2024-03-02T12:50:03;14.20;74.00
3416;DHT22;1721;51.238;9.562;2024-03-02T12:52:29;14.00;75.50
3416;DHT22;1721;51.238;9.562;2024-03-02T12:54:56;14.00;75.60
3416;DHT22;1721;51.238;9.562;2024-03-02T12:57:28;14.00;75.40
3416;DHT22;1721;51.238;9.562;2024-03-02T13:00:01;13.90;75.40
3416;DHT22;1721;51.238;9.562;2024-03-02T13:02:28;13.70;73.50
3416;DHT22;1721;51.238;9.562;2024-03-02T13:04:55;13.40;72.90
3416;DHT22;1721;51.238;9.562;2024-03-02T13:07:21;13.20;75.00
3416;DHT22;1721;51.238;9.562;2024-03-02T13:09:50;13.30;75.00
3416;DHT22;1721;51.238;9.562;2024-03-02T13:12:17;13.40;76.10
3416;DHT22;1721;51.238;9.562;2024-03-02T13:14:42;13.60;77.10
3416;DHT22;1721;51.238;9.562;2024-03-02T13:17:09;13.60;73.30
3416;DHT22;1721;51.238;9.562;2024-03-02T13:19:35;13.50;73.20
3416;DHT22;1721;51.238;9.562;2024-03-02T13:22:00;13.50;72.80
3416;DHT22;1721;51.238;9.562;2024-03-02T13:24:29;13.40;74.50
3416;DHT22;1721;51.238;9.562;2024-03-02T13:26:55;13.70;75.20
3416;DHT22;1721;51.238;9.562;2024-03-02T13:29:23;13.80;75.50
3416;DHT22;1721;51.238;9.562;2024-03-02T13:31:49;13.90;74.20
3416;DHT22;1721;51.238;9.562;2024-03-02T13:34:14;13.90;71.70
3416;DHT22;1721;51.238;9.562;2024-03-02T13:36:40;13.70;71.90
3416;DHT22;1721;51.238;9.562;2024-03-02T13:39:06;13.80;73.50
3416;DHT22;1721;51.238;9.562;2024-03-02T13:41:34;13.90;72.00
3416;DHT22;1721;51.238;9.562;2024-03-02T13:44:00;13.70;71.50
3416;DHT22;1721;51.238;9.562;2024-03-02T13:46:27;13.90;73.00
3416;DHT22;1721;51.238;9.562;2024-03-02T13:48:53;14.00;73.40
3416;DHT22;1721;51.238;9.562;2024-03-02T13:51:19;14.20;73.90
3416;DHT22;1721;51.238;9.562;2024-03-02T13:53:45;14.40;73.40
3416;DHT22;1721;51.238;9.562;2024-03-02T13:56:10;14.60;73.00
3416;DHT22;1721;51.238;9.562;2024-03-02T13:58:36;14.80;70.90
3416;DHT22;1721;51.238;9.562;2024-03-02T14:01:01;15.00;70.90
3416;DHT22;1721;51.238;9.562;2024-03-02T14:03:30;15.00;71.50
3416;DHT22;1721;51.238;9.562;2024-03-02T14:05:55;14.90;70.80
3416;DHT22;1721;51.238;9.562;2024-03-02T14:08:21;14.60;71.50
3416;DHT22;1721;51.238;9.562;2024-03-02T14:10:47;14.40;71.80
3416;DHT22;1721;51.238;9.562;2024-03-02T14:13:12;14.10;72.30
3416;DHT22;1721;51.238;9.562;2024-03-02T14:15:38;14.00;73.80
3416;DHT22;1721;51.238;9.562;2024-03-02T14:18:05;14.10;73.90
3416;DHT22;1721;51.238;9.562;2024-03-02T14:20:31;14.30;74.10
3416;DHT22;1721;51.238;9.562;2024-03-02T14:22:58;14.30;72.60
3416;DHT22;1721;51.238;9.562;2024-03-02T14:25:25;14.20;72.20
3416;DHT22;1721;51.238;9.562;2024-03-02T14:27:50;14.10;72.30
3416;DHT22;1721;51.238;9.562;2024-03-02T14:30:16;14.10;73.70
3416;DHT22;1721;51.238;9.562;2024-03-02T14:32:42;14.20;73.50
3416;DHT22;1721;51.238;9.562;2024-03-02T14:35:08;14.20;73.40
3416;DHT22;1721;51.238;9.562;2024-03-02T14:37:36;14.20;73.30
3416;DHT22;1721;51.238;9.562;2024-03-02T14:40:02;14.20;74.10
3416;DHT22;1721;51.238;9.562;2024-03-02T14:42:30;14.30;73.70
3416;DHT22;1721;51.238;9.562;2024-03-02T14:44:57;14.30;74.00
3416;DHT22;1721;51.238;9.562;2024-03-02T14:47:22;14.30;74.90
3416;DHT22;1721;51.238;9.562;2024-03-02T14:49:48;14.30;75.50
3416;DHT22;1721;51.238;9.562;2024-03-02T14:52:13;14.30;74.10
3416;DHT22;1721;51.238;9.562;2024-03-02T14:54:39;14.10;74.00
3416;DHT22;1721;51.238;9.562;2024-03-02T14:57:05;13.80;73.90
3416;DHT22;1721;51.238;9.562;2024-03-02T14:59:30;13.70;74.30
3416;DHT22;1721;51.238;9.562;2024-03-02T15:01:56;13.60;74.60
3416;DHT22;1721;51.238;9.562;2024-03-02T15:04:23;13.50;74.30
3416;DHT22;1721;51.238;9.562;2024-03-02T15:06:48;13.60;74.90
3416;DHT22;1721;51.238;9.562;2024-03-02T15:09:14;13.70;74.30
3416;DHT22;1721;51.238;9.562;2024-03-02T15:11:44;13.50;74.30
3416;DHT22;1721;51.238;9.562;2024-03-02T15:14:09;13.50;74.90
3416;DHT22;1721;51.238;9.562;2024-03-02T15:16:35;13.50;75.30
3416;DHT22;1721;51.238;9.562;2024-03-02T15:19:02;13.60;75.90
3416;DHT22;1721;51.238;9.562;2024-03-02T15:21:28;13.60;75.00
3416;DHT22;1721;51.238;9.562;2024-03-02T15:23:53;13.60;74.90
3416;DHT22;1721;51.238;9.562;2024-03-02T15:26:19;13.60;74.30
3416;DHT22;1721;51.238;9.562;2024-03-02T15:28:45;13.50;74.80
3416;DHT22;1721;51.238;9.562;2024-03-02T15:31:10;13.50;75.10
3416;DHT22;1721;51.238;9.562;2024-03-02T15:33:37;13.60;75.00
3416;DHT22;1721;51.238;9.562;2024-03-02T15:36:03;13.60;74.90
3416;DHT22;1721;51.238;9.562;2024-03-02T15:38:30;13.50;75.10
3416;DHT22;1721;51.238;9.562;2024-03-02T15:40:55;13.60;74.90
3416;DHT22;1721;51.238;9.562;2024-03-02T15:43:21;13.40;74.70
3416;DHT22;1721;51.238;9.562;2024-03-02T15:45:47;13.20;75.00
3416;DHT22;1721;51.238;9.562;2024-03-02T15:48:12;13.00;74.90
3416;DHT22;1721;51.238;9.562;2024-03-02T15:50:38;13.00;75.60
3416;DHT22;1721;51.238;9.562;2024-03-02T15:53:03;13.10;76.00
3416;DHT22;1721;51.238;9.562;2024-03-02T15:55:32;13.20;75.80
3416;DHT22;1721;51.238;9.562;2024-03-02T15:57:57;13.30;75.40
3416;DHT22;1721;51.238;9.562;2024-03-02T16:00:23;13.30;74.80
3416;DHT22;1721;51.238;9.562;2024-03-02T16:02:49;13.20;75.20
3416;DHT22;1721;51.238;9.562;2024-03-02T16:05:15;13.20;75.40
3416;DHT22;1721;51.238;9.562;2024-03-02T16:07:42;13.20;75.80
3416;DHT22;1721;51.238;9.562;2024-03-02T16:10:08;13.30;75.70
3416;DHT22;1721;51.238;9.562;2024-03-02T16:12:34;13.20;76.00
3416;DHT22;1721;51.238;9.562;2024-03-02T16:14:59;13.20;75.90
3416;DHT22;1721;51.238;9.562;2024-03-02T16:17:25;13.20;75.20